sensor_id;sensor_type;location;lat;lon;timestamp;pressure;altitude;pressure_sealevel;temperature
77599;BMP280;66758;52.078;5.070;2023-07-29T00:01:20;100887.97;;;18.11
77599;BMP280;66758;52.078;5.070;2023-07-29T00:03:47;100878.81;;;18.17
77599;BMP280;66758;52.078;5.070;2023-07-29T00:06:12;100883.19;;;18.18
77599;BMP280;66758;52.078;5.070;2023-07-29T00:08:38;100880.41;;;18.15
77599;BMP280;66758;52.078;5.070;2023-07-29T00:11:03;100881.25;;;18.12
77599;BMP280;66758;52.078;5.070;2023-07-29T00:13:29;100876.88;;;18.14
77599;BMP280;66758;52.078;5.070;2023-07-29T00:15:54;100865.41;;;18.09
77599;BMP280;66758;52.078;5.070;2023-07-29T00:18:21;100859.13;;;18.01
77599;BMP280;66758;52.078;5.070;2023-07-29T00:20:47;100859.53;;;17.99
77599;BMP280;66758;52.078;5.070;2023-07-29T00:23:13;100876.22;;;17.92
77599;BMP280;66758;52.078;5.070;2023-07-29T00:25:38;100866.31;;;17.95
77599;BMP280;66758;52.078;5.070;2023-07-29T00:28:03;100874.63;;;17.91
77599;BMP280;66758;52.078;5.070;2023-07-29T00:30:29;100876.50;;;18.05
77599;BMP280;66758;52.078;5.070;2023-07-29T00:32:54;100877.69;;;18.08
77599;BMP280;66758;52.078;5.070;2023-07-29T00:35:20;100873.38;;;18.03
77599;BMP280;66758;52.078;5.070;2023-07-29T00:37:45;100863.44;;;18.06
77599;BMP280;66758;52.078;5.070;2023-07-29T00:40:21;100865.88;;;18.00
77599;BMP280;66758;52.078;5.070;2023-07-29T00:42:47;100867.06;;;17.95
77599;BMP280;66758;52.078;5.070;2023-07-29T00:45:13;100857.63;;;17.89
77599;BMP280;66758;52.078;5.070;2023-07-29T00:47:39;100857.19;;;17.91
77599;BMP280;66758;52.078;5.070;2023-07-29T00:50:06;100859.59;;;17.89
77599;BMP280;66758;52.078;5.070;2023-07-29T00:52:32;100851.28;;;17.89
77599;BMP280;66758;52.078;5.070;2023-07-29T00:54:57;100855.72;;;17.76
77599;BMP280;66758;52.078;5.070;2023-07-29T00:57:23;100851.75;;;17.80
77599;BMP280;66758;52.078;5.070;2023-07-29T00:59:50;100853.34;;;17.74
77599;BMP280;66758;52.078;5.070;2023-07-29T01:02:16;100849.38;;;17.75
77599;BMP280;66758;52.078;5.070;2023-07-29T01:04:42;100852.56;;;17.74
77599;BMP280;66758;52.078;5.070;2023-07-29T01:07:39;100844.66;;;17.69
77599;BMP280;66758;52.078;5.070;2023-07-29T01:10:07;100852.63;;;17.60
77599;BMP280;66758;52.078;5.070;2023-07-29T01:12:45;100851.03;;;17.66
77599;BMP280;66758;52.078;5.070;2023-07-29T01:15:21;100844.72;;;17.62
77599;BMP280;66758;52.078;5.070;2023-07-29T01:17:52;100848.69;;;17.53
77599;BMP280;66758;52.078;5.070;2023-07-29T01:20:19;100845.13;;;17.53
77599;BMP280;66758;52.078;5.070;2023-07-29T01:22:45;100837.63;;;17.50
77599;BMP280;66758;52.078;5.070;2023-07-29T01:25:12;100837.25;;;17.48
77599;BMP280;66758;52.078;5.070;2023-07-29T01:27:41;100836.06;;;17.42
77599;BMP280;66758;52.078;5.070;2023-07-29T01:30:07;100844.00;;;17.43
77599;BMP280;66758;52.078;5.070;2023-07-29T01:35:10;100840.06;;;17.41
77599;BMP280;66758;52.078;5.070;2023-07-29T01:37:37;100836.88;;;17.39
77599;BMP280;66758;52.078;5.070;2023-07-29T01:40:06;100830.16;;;17.40
77599;BMP280;66758;52.078;5.070;2023-07-29T01:42:32;100830.56;;;17.38
77599;BMP280;66758;52.078;5.070;2023-07-29T01:44:59;100830.19;;;17.29
77599;BMP280;66758;52.078;5.070;2023-07-29T01:47:25;100827.84;;;17.31
77599;BMP280;66758;52.078;5.070;2023-07-29T01:49:51;100830.63;;;17.24
77599;BMP280;66758;52.078;5.070;2023-07-29T01:52:16;100822.69;;;17.30
77599;BMP280;66758;52.078;5.070;2023-07-29T01:54:42;100826.66;;;17.25
77599;BMP280;66758;52.078;5.070;2023-07-29T01:57:07;100825.06;;;17.31
77599;BMP280;66758;52.078;5.070;2023-07-29T01:59:32;100824.28;;;17.31
77599;BMP280;66758;52.078;5.070;2023-07-29T02:01:58;100810.84;;;17.26
77599;BMP280;66758;52.078;5.070;2023-07-29T02:04:23;100817.97;;;17.27
77599;BMP280;66758;52.078;5.070;2023-07-29T02:06:49;100810.78;;;17.33
77599;BMP280;66758;52.078;5.070;2023-07-29T02:09:14;100802.88;;;17.35
77599;BMP280;66758;52.078;5.070;2023-07-29T02:11:39;100804.84;;;17.34
77599;BMP280;66758;52.078;5.070;2023-07-29T02:14:05;100817.16;;;17.26
77599;BMP280;66758;52.078;5.070;2023-07-29T02:16:31;100819.16;;;17.22
77599;BMP280;66758;52.078;5.070;2023-07-29T02:18:59;100818.72;;;17.27
77599;BMP280;66758;52.078;5.070;2023-07-29T02:21:24;100820.31;;;17.25
77599;BMP280;66758;52.078;5.070;2023-07-29T02:23:50;100815.22;;;17.16
77599;BMP280;66758;52.078;5.070;2023-07-29T02:26:16;100807.31;;;17.15
77599;BMP280;66758;52.078;5.070;2023-07-29T02:28:41;100810.84;;;17.19
77599;BMP280;66758;52.078;5.070;2023-07-29T02:31:19;100801.00;;;17.03
77599;BMP280;66758;52.078;5.070;2023-07-29T02:33:45;100798.22;;;17.14
77599;BMP280;66758;52.078;5.070;2023-07-29T02:36:12;100795.09;;;17.05
77599;BMP280;66758;52.078;5.070;2023-07-29T02:38:38;100802.63;;;16.94
77599;BMP280;66758;52.078;5.070;2023-07-29T02:41:03;100804.63;;;16.97
77599;BMP280;66758;52.078;5.070;2023-07-29T02:43:28;100796.69;;;16.92
77599;BMP280;66758;52.078;5.070;2023-07-29T02:45:54;100794.34;;;16.90
77599;BMP280;66758;52.078;5.070;2023-07-29T02:48:19;100803.81;;;16.93
77599;BMP280;66758;52.078;5.070;2023-07-29T02:50:45;100798.28;;;16.89
77599;BMP280;66758;52.078;5.070;2023-07-29T02:53:10;100802.59;;;16.97
77599;BMP280;66758;52.078;5.070;2023-07-29T02:55:39;100795.13;;;16.84
77599;BMP280;66758;52.078;5.070;2023-07-29T02:58:06;100798.28;;;16.93
77599;BMP280;66758;52.078;5.070;2023-07-29T03:00:31;100786.44;;;16.89
77599;BMP280;66758;52.078;5.070;2023-07-29T03:02:58;100782.53;;;16.76
77599;BMP280;66758;52.078;5.070;2023-07-29T03:05:24;100788.06;;;16.76
77599;BMP280;66758;52.078;5.070;2023-07-29T03:07:49;100780.53;;;16.73
77599;BMP280;66758;52.078;5.070;2023-07-29T03:10:15;100777.00;;;16.76
77599;BMP280;66758;52.078;5.070;2023-07-29T03:12:40;100781.72;;;16.72
77599;BMP280;66758;52.078;5.070;2023-07-29T03:15:06;100787.63;;;16.77
77599;BMP280;66758;52.078;5.070;2023-07-29T03:17:31;100783.72;;;16.71
77599;BMP280;66758;52.078;5.070;2023-07-29T03:19:57;100781.72;;;16.72
77599;BMP280;66758;52.078;5.070;2023-07-29T03:22:22;100781.72;;;16.72
77599;BMP280;66758;52.078;5.070;2023-07-29T03:24:48;100786.47;;;16.75
77599;BMP280;66758;52.078;5.070;2023-07-29T03:27:13;100788.03;;;16.83
77599;BMP280;66758;52.078;5.070;2023-07-29T03:29:41;100783.31;;;16.69
77599;BMP280;66758;52.078;5.070;2023-07-29T03:32:06;100794.00;;;16.71
77599;BMP280;66758;52.078;5.070;2023-07-29T03:34:32;100786.06;;;16.76
77599;BMP280;66758;52.078;5.070;2023-07-29T03:36:58;100781.72;;;16.72
77599;BMP280;66758;52.078;5.070;2023-07-29T03:39:24;100781.72;;;16.68
77599;BMP280;66758;52.078;5.070;2023-07-29T03:41:49;100794.38;;;16.73
77599;BMP280;66758;52.078;5.070;2023-07-29T03:44:14;100791.97;;;16.82
77599;BMP280;66758;52.078;5.070;2023-07-29T03:46:40;100798.69;;;16.88
77599;BMP280;66758;52.078;5.070;2023-07-29T03:49:05;100797.91;;;16.84
77599;BMP280;66758;52.078;5.070;2023-07-29T03:51:32;100794.34;;;16.83
77599;BMP280;66758;52.078;5.070;2023-07-29T03:53:57;100793.56;;;16.79
77599;BMP280;66758;52.078;5.070;2023-07-29T03:56:23;100804.63;;;16.83
77599;BMP280;66758;52.078;5.070;2023-07-29T03:58:48;100800.69;;;16.80
77599;BMP280;66758;52.078;5.070;2023-07-29T04:01:14;100796.72;;;16.78
77599;BMP280;66758;52.078;5.070;2023-07-29T04:03:40;100791.97;;;16.82
77599;BMP280;66758;52.078;5.070;2023-07-29T04:06:05;100793.16;;;16.77
77599;BMP280;66758;52.078;5.070;2023-07-29T04:08:31;100789.63;;;16.69
77599;BMP280;66758;52.078;5.070;2023-07-29T04:10:56;100788.84;;;16.69
77599;BMP280;66758;52.078;5.070;2023-07-29T04:13:22;100801.88;;;16.76
77599;BMP280;66758;52.078;5.070;2023-07-29T04:15:47;100798.34;;;16.61
77599;BMP280;66758;52.078;5.070;2023-07-29T04:18:13;100800.69;;;16.62
77599;BMP280;66758;52.078;5.070;2023-07-29T04:20:38;100797.94;;;16.69
77599;BMP280;66758;52.078;5.070;2023-07-29T04:23:03;100793.19;;;16.66
77599;BMP280;66758;52.078;5.070;2023-07-29T04:25:29;100796.34;;;16.61
77599;BMP280;66758;52.078;5.070;2023-07-29T04:27:54;100795.59;;;16.61
77599;BMP280;66758;52.078;5.070;2023-07-29T04:30:20;100801.88;;;16.68
77599;BMP280;66758;52.078;5.070;2023-07-29T04:32:46;100792.81;;;16.61
77599;BMP280;66758;52.078;5.070;2023-07-29T04:35:14;100795.19;;;16.59
77599;BMP280;66758;52.078;5.070;2023-07-29T04:37:40;100793.22;;;16.56
77599;BMP280;66758;52.078;5.070;2023-07-29T04:40:06;100793.22;;;16.59
77599;BMP280;66758;52.078;5.070;2023-07-29T04:42:31;100793.59;;;16.61
77599;BMP280;66758;52.078;5.070;2023-07-29T04:44:57;100791.22;;;16.56
77599;BMP280;66758;52.078;5.070;2023-07-29T04:47:22;100787.69;;;16.59
77599;BMP280;66758;52.078;5.070;2023-07-29T04:49:48;100791.22;;;16.63
77599;BMP280;66758;52.078;5.070;2023-07-29T04:52:14;100802.28;;;16.63
77599;BMP280;66758;52.078;5.070;2023-07-29T04:54:40;100808.59;;;16.67
77599;BMP280;66758;52.078;5.070;2023-07-29T04:57:06;100810.59;;;16.71
77599;BMP280;66758;52.078;5.070;2023-07-29T04:59:31;100799.13;;;16.68
77599;BMP280;66758;52.078;5.070;2023-07-29T05:01:57;100801.06;;;16.72
77599;BMP280;66758;52.078;5.070;2023-07-29T05:04:23;100814.09;;;16.82
77599;BMP280;66758;52.078;5.070;2023-07-29T05:06:48;100824.41;;;16.85
77599;BMP280;66758;52.078;5.070;2023-07-29T05:09:15;100812.53;;;16.88
77599;BMP280;66758;52.078;5.070;2023-07-29T05:11:41;100818.06;;;16.95
77599;BMP280;66758;52.078;5.070;2023-07-29T05:14:07;100808.16;;;16.94
77599;BMP280;66758;52.078;5.070;2023-07-29T05:16:34;100808.56;;;16.92
77599;BMP280;66758;52.078;5.070;2023-07-29T05:18:59;100814.47;;;16.98
77599;BMP280;66758;52.078;5.070;2023-07-29T05:21:25;100807.75;;;17.06
77599;BMP280;66758;52.078;5.070;2023-07-29T05:23:50;100815.59;;;17.18
77599;BMP280;66758;52.078;5.070;2023-07-29T05:26:16;100820.34;;;17.14
77599;BMP280;66758;52.078;5.070;2023-07-29T05:28:41;100814.81;;;17.21
77599;BMP280;66758;52.078;5.070;2023-07-29T05:31:06;100830.59;;;17.31
77599;BMP280;66758;52.078;5.070;2023-07-29T05:33:32;100827.41;;;17.33
77599;BMP280;66758;52.078;5.070;2023-07-29T05:35:57;100824.66;;;17.36
77599;BMP280;66758;52.078;5.070;2023-07-29T05:38:23;100817.53;;;17.28
77599;BMP280;66758;52.078;5.070;2023-07-29T05:40:49;100815.16;;;17.34
77599;BMP280;66758;52.078;5.070;2023-07-29T05:43:14;100804.81;;;17.45
77599;BMP280;66758;52.078;5.070;2023-07-29T05:45:40;100812.66;;;17.57
77599;BMP280;66758;52.078;5.070;2023-07-29T05:48:05;100814.53;;;17.78
77599;BMP280;66758;52.078;5.070;2023-07-29T05:50:31;100816.06;;;17.82
77599;BMP280;66758;52.078;5.070;2023-07-29T05:52:56;100821.16;;;17.94
77599;BMP280;66758;52.078;5.070;2023-07-29T05:55:22;100817.53;;;18.05
77599;BMP280;66758;52.078;5.070;2023-07-29T05:57:47;100814.47;;;17.88
77599;BMP280;66758;52.078;5.070;2023-07-29T06:00:13;100816.03;;;17.89
77599;BMP280;66758;52.078;5.070;2023-07-29T06:02:38;100807.19;;;18.09
77599;BMP280;66758;52.078;5.070;2023-07-29T06:05:06;100807.47;;;18.21
77599;BMP280;66758;52.078;5.070;2023-07-29T06:07:32;100809.41;;;18.28
77599;BMP280;66758;52.078;5.070;2023-07-29T06:09:59;100796.72;;;18.30
77599;BMP280;66758;52.078;5.070;2023-07-29T06:12:24;100807.00;;;18.30
77599;BMP280;66758;52.078;5.070;2023-07-29T06:14:50;100807.03;;;18.26
77599;BMP280;66758;52.078;5.070;2023-07-29T06:17:15;100810.97;;;18.29
77599;BMP280;66758;52.078;5.070;2023-07-29T06:19:41;100814.44;;;18.40
77599;BMP280;66758;52.078;5.070;2023-07-29T06:22:06;100818.72;;;18.48
77599;BMP280;66758;52.078;5.070;2023-07-29T06:24:31;100830.66;;;18.45
77599;BMP280;66758;52.078;5.070;2023-07-29T06:26:58;100818.88;;;18.75
77599;BMP280;66758;52.078;5.070;2023-07-29T06:29:23;100826.53;;;19.01
77599;BMP280;66758;52.078;5.070;2023-07-29T06:31:49;100825.97;;;19.13
77599;BMP280;66758;52.078;5.070;2023-07-29T06:34:16;100818.03;;;19.15
77599;BMP280;66758;52.078;5.070;2023-07-29T06:36:42;100831.31;;;19.31
77599;BMP280;66758;52.078;5.070;2023-07-29T06:39:07;100830.03;;;19.05
77599;BMP280;66758;52.078;5.070;2023-07-29T06:41:33;100825.63;;;19.08
77599;BMP280;66758;52.078;5.070;2023-07-29T06:43:58;100819.47;;;19.27
77599;BMP280;66758;52.078;5.070;2023-07-29T06:46:23;100822.34;;;19.16
77599;BMP280;66758;52.078;5.070;2023-07-29T06:48:49;100824.28;;;19.23
77599;BMP280;66758;52.078;5.070;2023-07-29T06:51:14;100826.75;;;19.14
77599;BMP280;66758;52.078;5.070;2023-07-29T06:53:40;100829.59;;;19.10
77599;BMP280;66758;52.078;5.070;2023-07-29T06:56:05;100823.28;;;19.06
77599;BMP280;66758;52.078;5.070;2023-07-29T06:58:31;100836.44;;;19.02
77599;BMP280;66758;52.078;5.070;2023-07-29T07:00:56;100838.91;;;18.93
77599;BMP280;66758;52.078;5.070;2023-07-29T07:03:22;100830.28;;;18.84
77599;BMP280;66758;52.078;5.070;2023-07-29T07:05:47;100842.09;;;18.92
77599;BMP280;66758;52.078;5.070;2023-07-29T07:08:12;100832.06;;;19.01
77599;BMP280;66758;52.078;5.070;2023-07-29T07:10:38;100838.38;;;19.05
77599;BMP280;66758;52.078;5.070;2023-07-29T07:13:03;100831.72;;;19.29
77599;BMP280;66758;52.078;5.070;2023-07-29T07:15:29;100837.38;;;19.53
77599;BMP280;66758;52.078;5.070;2023-07-29T07:17:54;100839.97;;;19.67
77599;BMP280;66758;52.078;5.070;2023-07-29T07:20:20;100836.84;;;19.61
77599;BMP280;66758;52.078;5.070;2023-07-29T07:22:45;100832.94;;;19.59
77599;BMP280;66758;52.078;5.070;2023-07-29T07:25:10;100833.88;;;19.75
77599;BMP280;66758;52.078;5.070;2023-07-29T07:27:36;100842.81;;;19.90
77599;BMP280;66758;52.078;5.070;2023-07-29T07:30:03;100845.19;;;20.15
77599;BMP280;66758;52.078;5.070;2023-07-29T07:32:28;100839.19;;;20.16
77599;BMP280;66758;52.078;5.070;2023-07-29T07:34:54;100837.84;;;20.01
77599;BMP280;66758;52.078;5.070;2023-07-29T07:37:19;100838.91;;;20.11
77599;BMP280;66758;52.078;5.070;2023-07-29T07:39:45;100833.75;;;19.83
77599;BMP280;66758;52.078;5.070;2023-07-29T07:42:10;100836.44;;;19.90
77599;BMP280;66758;52.078;5.070;2023-07-29T07:44:36;100845.38;;;20.28
77599;BMP280;66758;52.078;5.070;2023-07-29T07:47:01;100842.84;;;19.87
77599;BMP280;66758;52.078;5.070;2023-07-29T07:49:27;100850.66;;;19.95
77599;BMP280;66758;52.078;5.070;2023-07-29T07:51:52;100850.50;;;19.79
77599;BMP280;66758;52.078;5.070;2023-07-29T07:54:17;100848.44;;;20.10
77599;BMP280;66758;52.078;5.070;2023-07-29T07:56:43;100846.78;;;20.12
77599;BMP280;66758;52.078;5.070;2023-07-29T07:59:09;100849.22;;;20.10
77599;BMP280;66758;52.078;5.070;2023-07-29T08:01:35;100847.53;;;20.16
77599;BMP280;66758;52.078;5.070;2023-07-29T08:04:01;100854.19;;;19.99
77599;BMP280;66758;52.078;5.070;2023-07-29T08:06:27;100856.00;;;19.83
77599;BMP280;66758;52.078;5.070;2023-07-29T08:08:52;100854.91;;;20.03
77599;BMP280;66758;52.078;5.070;2023-07-29T08:11:19;100845.72;;;20.06
77599;BMP280;66758;52.078;5.070;2023-07-29T08:13:45;100844.00;;;19.89
77599;BMP280;66758;52.078;5.070;2023-07-29T08:16:11;100851.63;;;19.85
77599;BMP280;66758;52.078;5.070;2023-07-29T08:18:37;100861.53;;;19.86
77599;BMP280;66758;52.078;5.070;2023-07-29T08:21:02;100860.22;;;19.94
77599;BMP280;66758;52.078;5.070;2023-07-29T08:23:30;100867.13;;;19.83
77599;BMP280;66758;52.078;5.070;2023-07-29T08:25:57;100863.72;;;19.71
77599;BMP280;66758;52.078;5.070;2023-07-29T08:28:27;100865.09;;;19.60
77599;BMP280;66758;52.078;5.070;2023-07-29T08:30:53;100864.00;;;19.50
77599;BMP280;66758;52.078;5.070;2023-07-29T08:33:18;100860.41;;;19.53
77599;BMP280;66758;52.078;5.070;2023-07-29T08:35:44;100864.41;;;19.49
77599;BMP280;66758;52.078;5.070;2023-07-29T08:38:09;100867.88;;;19.56
77599;BMP280;66758;52.078;5.070;2023-07-29T08:40:45;100867.56;;;19.81
77599;BMP280;66758;52.078;5.070;2023-07-29T08:43:16;100871.81;;;20.39
77599;BMP280;66758;52.078;5.070;2023-07-29T08:45:44;100872.41;;;20.74
77599;BMP280;66758;52.078;5.070;2023-07-29T08:48:10;100857.66;;;21.12
77599;BMP280;66758;52.078;5.070;2023-07-29T08:50:37;100857.53;;;21.00
77599;BMP280;66758;52.078;5.070;2023-07-29T08:53:06;100864.72;;;20.58
77599;BMP280;66758;52.078;5.070;2023-07-29T08:55:33;100874.34;;;20.30
77599;BMP280;66758;52.078;5.070;2023-07-29T08:57:59;100875.84;;;20.35
77599;BMP280;66758;52.078;5.070;2023-07-29T09:00:25;100873.81;;;20.62
77599;BMP280;66758;52.078;5.070;2023-07-29T09:02:51;100870.03;;;20.72
77599;BMP280;66758;52.078;5.070;2023-07-29T09:05:16;100874.63;;;20.59
77599;BMP280;66758;52.078;5.070;2023-07-29T09:07:42;100872.91;;;20.45
77599;BMP280;66758;52.078;5.070;2023-07-29T09:10:10;100879.53;;;20.75
77599;BMP280;66758;52.078;5.070;2023-07-29T09:12:39;100869.88;;;21.18
77599;BMP280;66758;52.078;5.070;2023-07-29T09:15:05;100873.88;;;20.98
77599;BMP280;66758;52.078;5.070;2023-07-29T09:17:33;100871.97;;;20.95
77599;BMP280;66758;52.078;5.070;2023-07-29T09:19:58;100879.00;;;20.60
77599;BMP280;66758;52.078;5.070;2023-07-29T09:22:24;100889.41;;;20.33
77599;BMP280;66758;52.078;5.070;2023-07-29T09:24:51;100878.38;;;20.02
77599;BMP280;66758;52.078;5.070;2023-07-29T09:27:24;100881.09;;;19.49
77599;BMP280;66758;52.078;5.070;2023-07-29T09:29:49;100889.41;;;19.18
77599;BMP280;66758;52.078;5.070;2023-07-29T09:32:22;100883.78;;;18.84
77599;BMP280;66758;52.078;5.070;2023-07-29T09:34:47;100871.44;;;18.93
77599;BMP280;66758;52.078;5.070;2023-07-29T09:37:17;100877.56;;;19.14
77599;BMP280;66758;52.078;5.070;2023-07-29T09:39:47;100871.09;;;19.21
77599;BMP280;66758;52.078;5.070;2023-07-29T09:42:20;100866.50;;;19.11
77599;BMP280;66758;52.078;5.070;2023-07-29T09:44:48;100875.97;;;19.13
77599;BMP280;66758;52.078;5.070;2023-07-29T09:47:24;100864.94;;;19.06
77599;BMP280;66758;52.078;5.070;2023-07-29T09:49:51;100864.00;;;19.20
77599;BMP280;66758;52.078;5.070;2023-07-29T09:52:18;100871.50;;;19.23
77599;BMP280;66758;52.078;5.070;2023-07-29T09:54:44;100868.78;;;19.19
77599;BMP280;66758;52.078;5.070;2023-07-29T09:57:14;100866.34;;;19.21
77599;BMP280;66758;52.078;5.070;2023-07-29T09:59:40;100867.53;;;19.24
77599;BMP280;66758;52.078;5.070;2023-07-29T10:02:13;100877.16;;;19.12
77599;BMP280;66758;52.078;5.070;2023-07-29T10:04:39;100870.69;;;18.88
77599;BMP280;66758;52.078;5.070;2023-07-29T10:07:05;100873.94;;;18.80
77599;BMP280;66758;52.078;5.070;2023-07-29T10:09:33;100881.16;;;18.74
77599;BMP280;66758;52.078;5.070;2023-07-29T10:12:00;100881.94;;;18.71
77599;BMP280;66758;52.078;5.070;2023-07-29T10:14:27;100880.13;;;18.95
77599;BMP280;66758;52.078;5.070;2023-07-29T10:16:55;100885.66;;;18.98
77599;BMP280;66758;52.078;5.070;2023-07-29T10:19:22;100879.44;;;18.87
77599;BMP280;66758;52.078;5.070;2023-07-29T10:21:49;100883.34;;;18.89
77599;BMP280;66758;52.078;5.070;2023-07-29T10:24:19;100887.66;;;18.98
77599;BMP280;66758;52.078;5.070;2023-07-29T10:26:46;100877.47;;;18.84
77599;BMP280;66758;52.078;5.070;2023-07-29T10:29:20;100881.47;;;18.83
77599;BMP280;66758;52.078;5.070;2023-07-29T10:31:48;100870.66;;;18.92
77599;BMP280;66758;52.078;5.070;2023-07-29T10:34:14;100873.59;;;19.12
77599;BMP280;66758;52.078;5.070;2023-07-29T10:36:40;100872.75;;;19.49
77599;BMP280;66758;52.078;5.070;2023-07-29T10:39:07;100878.41;;;19.72
77599;BMP280;66758;52.078;5.070;2023-07-29T10:42:02;100874.06;;;19.71
77599;BMP280;66758;52.078;5.070;2023-07-29T10:47:11;100880.06;;;19.66
77599;BMP280;66758;52.078;5.070;2023-07-29T10:49:40;100877.41;;;19.59
77599;BMP280;66758;52.078;5.070;2023-07-29T10:52:05;100881.03;;;19.56
77599;BMP280;66758;52.078;5.070;2023-07-29T10:54:50;100887.75;;;19.24
77599;BMP280;66758;52.078;5.070;2023-07-29T10:57:30;100878.88;;;19.37
77599;BMP280;66758;52.078;5.070;2023-07-29T10:59:56;100882.09;;;19.31
77599;BMP280;66758;52.078;5.070;2023-07-29T11:02:29;100890.69;;;19.10
77599;BMP280;66758;52.078;5.070;2023-07-29T11:04:59;100889.88;;;18.72
77599;BMP280;66758;52.078;5.070;2023-07-29T11:07:26;100885.59;;;18.64
77599;BMP280;66758;52.078;5.070;2023-07-29T11:09:54;100890.78;;;18.59
77599;BMP280;66758;52.078;5.070;2023-07-29T11:15:14;100901.28;;;18.37
77599;BMP280;66758;52.078;5.070;2023-07-29T11:17:42;100911.56;;;18.40
77599;BMP280;66758;52.078;5.070;2023-07-29T11:20:12;100903.63;;;18.38
77599;BMP280;66758;52.078;5.070;2023-07-29T11:22:38;100902.97;;;18.24
77599;BMP280;66758;52.078;5.070;2023-07-29T11:25:08;100906.31;;;18.49
77599;BMP280;66758;52.078;5.070;2023-07-29T11:27:33;100901.69;;;18.80
77599;BMP280;66758;52.078;5.070;2023-07-29T11:30:04;100895.06;;;19.08
77599;BMP280;66758;52.078;5.070;2023-07-29T11:32:37;100885.50;;;19.12
77599;BMP280;66758;52.078;5.070;2023-07-29T11:35:04;100877.97;;;19.47
77599;BMP280;66758;52.078;5.070;2023-07-29T11:37:30;100874.38;;;19.46
77599;BMP280;66758;52.078;5.070;2023-07-29T11:39:55;100873.53;;;20.06
77599;BMP280;66758;52.078;5.070;2023-07-29T11:42:21;100875.06;;;20.34
77599;BMP280;66758;52.078;5.070;2023-07-29T11:44:46;100873.28;;;21.98
77599;BMP280;66758;52.078;5.070;2023-07-29T11:47:12;100875.88;;;22.53
77599;BMP280;66758;52.078;5.070;2023-07-29T11:49:40;100880.94;;;23.54
77599;BMP280;66758;52.078;5.070;2023-07-29T11:52:08;100894.59;;;23.10
77599;BMP280;66758;52.078;5.070;2023-07-29T11:54:38;100891.34;;;22.99
77599;BMP280;66758;52.078;5.070;2023-07-29T11:57:07;100892.97;;;22.39
77599;BMP280;66758;52.078;5.070;2023-07-29T11:59:35;100884.28;;;22.66
77599;BMP280;66758;52.078;5.070;2023-07-29T12:02:01;100903.63;;;21.96
77599;BMP280;66758;52.078;5.070;2023-07-29T12:04:36;100882.91;;;21.61
77599;BMP280;66758;52.078;5.070;2023-07-29T12:07:02;100885.09;;;21.34
77599;BMP280;66758;52.078;5.070;2023-07-29T12:09:28;100890.81;;;21.07
77599;BMP280;66758;52.078;5.070;2023-07-29T12:11:55;100887.59;;;20.89
77599;BMP280;66758;52.078;5.070;2023-07-29T12:14:20;100893.81;;;20.96
77599;BMP280;66758;52.078;5.070;2023-07-29T12:16:48;100883.19;;;20.91
77599;BMP280;66758;52.078;5.070;2023-07-29T12:19:14;100888.03;;;21.27
77599;BMP280;66758;52.078;5.070;2023-07-29T12:21:44;100879.22;;;21.08
77599;BMP280;66758;52.078;5.070;2023-07-29T12:24:09;100879.78;;;21.59
77599;BMP280;66758;52.078;5.070;2023-07-29T12:26:37;100881.28;;;21.80
77599;BMP280;66758;52.078;5.070;2023-07-29T12:29:16;100879.78;;;21.59
77599;BMP280;66758;52.078;5.070;2023-07-29T12:31:42;100881.94;;;21.51
77599;BMP280;66758;52.078;5.070;2023-07-29T12:34:09;100872.31;;;21.88
77599;BMP280;66758;52.078;5.070;2023-07-29T12:36:45;100872.81;;;21.67
77599;BMP280;66758;52.078;5.070;2023-07-29T12:39:40;100871.03;;;21.57
77599;BMP280;66758;52.078;5.070;2023-07-29T12:42:06;100883.94;;;21.51
77599;BMP280;66758;52.078;5.070;2023-07-29T12:44:33;100878.94;;;21.78
77599;BMP280;66758;52.078;5.070;2023-07-29T12:47:01;100883.13;;;21.86
77599;BMP280;66758;52.078;5.070;2023-07-29T12:49:26;100867.28;;;21.47
77599;BMP280;66758;52.078;5.070;2023-07-29T12:51:53;100870.38;;;21.33
77599;BMP280;66758;52.078;5.070;2023-07-29T12:54:19;100875.06;;;21.56
77599;BMP280;66758;52.078;5.070;2023-07-29T12:56:44;100877.69;;;22.44
77599;BMP280;66758;52.078;5.070;2023-07-29T12:59:09;100875.44;;;22.39
77599;BMP280;66758;52.078;5.070;2023-07-29T13:01:35;100872.97;;;22.57
77599;BMP280;66758;52.078;5.070;2023-07-29T13:04:00;100872.22;;;22.69
77599;BMP280;66758;52.078;5.070;2023-07-29T13:06:26;100872.34;;;22.94
77599;BMP280;66758;52.078;5.070;2023-07-29T13:08:51;100879.88;;;23.10
77599;BMP280;66758;52.078;5.070;2023-07-29T13:11:17;100869.16;;;23.34
77599;BMP280;66758;52.078;5.070;2023-07-29T13:13:43;100873.03;;;22.98
77599;BMP280;66758;52.078;5.070;2023-07-29T13:16:10;100873.66;;;23.31
77599;BMP280;66758;52.078;5.070;2023-07-29T13:18:36;100864.34;;;25.58
77599;BMP280;66758;52.078;5.070;2023-07-29T13:21:01;100872.56;;;27.49
77599;BMP280;66758;52.078;5.070;2023-07-29T13:23:27;100868.81;;;26.41
77599;BMP280;66758;52.078;5.070;2023-07-29T13:25:55;100871.00;;;25.92
77599;BMP280;66758;52.078;5.070;2023-07-29T13:28:22;100874.88;;;25.05
77599;BMP280;66758;52.078;5.070;2023-07-29T13:30:48;100875.22;;;24.30
77599;BMP280;66758;52.078;5.070;2023-07-29T13:33:13;100864.44;;;26.58
77599;BMP280;66758;52.078;5.070;2023-07-29T13:35:39;100857.09;;;26.25
77599;BMP280;66758;52.078;5.070;2023-07-29T13:38:04;100871.16;;;27.12
77599;BMP280;66758;52.078;5.070;2023-07-29T13:40:30;100882.56;;;27.17
77599;BMP280;66758;52.078;5.070;2023-07-29T13:42:55;100884.84;;;24.63
77599;BMP280;66758;52.078;5.070;2023-07-29T13:45:21;100880.31;;;24.09
77599;BMP280;66758;52.078;5.070;2023-07-29T13:47:48;100879.75;;;24.15
77599;BMP280;66758;52.078;5.070;2023-07-29T13:50:15;100891.22;;;23.82
77599;BMP280;66758;52.078;5.070;2023-07-29T13:52:41;100879.97;;;24.76
77599;BMP280;66758;52.078;5.070;2023-07-29T13:55:07;100872.66;;;25.71
77599;BMP280;66758;52.078;5.070;2023-07-29T13:57:32;100871.78;;;27.07
77599;BMP280;66758;52.078;5.070;2023-07-29T13:59:59;100868.41;;;28.07
77599;BMP280;66758;52.078;5.070;2023-07-29T14:02:25;100868.56;;;29.70